Paredes Garcia — EA2886 — position and weather

sailwx.info

Track history (hours):
 
Tides and Currents Weather Stations Pressure Air Temp Water Temp Dewpoint Dewpoint Depression Visibility Wind Speed Wind Dir Waves Ship Positions

Paredes Garcia

Last reported at 2018-Jun-25 01:21 UTC. Time now 2018-Jun-25 19:46 UTC.
Position N 37°31' W 001°07'.

Length 19 m.

Type: Fishing. MMSI: 224020840.

Date/timePositionNaut miles runAvg speedWind from/ knotsBaromVisibWave heightAir tempDewpointWater temp
2018-Jun-25 01:21N 37°31' W 001°07'6 4.9
2018-Jun-25 00:12N 37°31' W 001°00'2 7.5
2018-Jun-24 23:59N 37°30' W 000°59'4 7.4
2018-Jun-24 23:30N 37°29' W 000°55'4 6.1
2018-Jun-24 22:55N 37°31' W 000°58'  
2018-Jun-22 05:11N 37°31' W 001°07'510.5
2018-Jun-22 04:44N 37°30' W 001°01'210.4
2018-Jun-22 04:30N 37°30' W 000°58'3 4.9
2018-Jun-22 03:58N 37°29' W 000°55'0 0.1
2018-Jun-22 03:29N 37°29' W 000°55'1 1.9
2018-Jun-22 03:00N 37°30' W 000°56'2 3.4
2018-Jun-22 02:26N 37°30' W 000°54'0 0.1
2018-Jun-22 02:00N 37°30' W 000°54'0 0.1
2018-Jun-22 01:30N 37°30' W 000°54'1 1.0
2018-Jun-22 01:00N 37°30' W 000°54'0 0.4
2018-Jun-22 00:30N 37°30' W 000°54'2 4.1
2018-Jun-21 23:59N 37°32' W 000°52'0 0.7
2018-Jun-21 23:29N 37°32' W 000°52'0 0.7
2018-Jun-21 22:59N 37°32' W 000°53'0 0.4
2018-Jun-21 22:30N 37°32' W 000°53'0 0.5
2018-Jun-21 21:35N 37°33' W 000°52'0 0.3
2018-Jun-21 21:30N 37°33' W 000°52'0 0.1
2018-Jun-21 21:00N 37°33' W 000°52'11 0.6
2018-Jun-21 03:42N 37°33' W 001°06'1 4.4
2018-Jun-21 03:24N 37°34' W 001°05'5 8.4
2018-Jun-21 02:51N 37°32' W 001°00'3 8.6
2018-Jun-21 02:30N 37°32' W 000°56'2 3.5
2018-Jun-21 01:57N 37°32' W 000°54'0 0.3
2018-Jun-21 01:29N 37°32' W 000°54'0 0.2
2018-Jun-21 01:00N 37°32' W 000°54'0 0.1
2018-Jun-21 00:24N 37°32' W 000°54'1 1.5
2018-Jun-20 23:51N 37°32' W 000°55'10 0.5
2018-Jun-20 04:40N 37°31' W 001°07'510.4
2018-Jun-20 04:10N 37°30' W 001°01'210.4
2018-Jun-20 04:00N 37°30' W 000°59'3 5.8
2018-Jun-20 03:30N 37°30' W 000°55'0 0.3
2018-Jun-20 03:00N 37°30' W 000°55'0 0.2
2018-Jun-20 02:30N 37°30' W 000°55'0 0.6
2018-Jun-20 01:56N 37°30' W 000°55'0 0.3
2018-Jun-20 01:30N 37°30' W 000°55'4 5.2
2018-Jun-20 00:46N 37°31' W 000°60'0 0.1
2018-Jun-19 23:28N 37°31' W 000°59'0 0.4
2018-Jun-19 23:00N 37°31' W 000°60'4 0.2
2018-Jun-19 02:56N 37°32' W 001°05'0 0.4
2018-Jun-19 02:29N 37°32' W 001°04'0 0.4
2018-Jun-19 01:44N 37°32' W 001°05'0 0.1
2018-Jun-19 00:41N 37°32' W 001°05'0 1.9
2018-Jun-19 00:30N 37°32' W 001°05'1 0.1
2018-Jun-18 04:32N 37°32' W 001°06'0 0.2
2018-Jun-18 02:07N 37°32' W 001°06'1 7.9
2018-Jun-18 01:59N 37°33' W 001°06'  
Track history (hours):
 
Tides and Currents Weather Stations Pressure Air Temp Water Temp Dewpoint Dewpoint Depression Visibility Wind Speed Wind Dir Waves Ship Positions

Paredes Garcia

Last reported at 2018-Jun-25 01:21 UTC. Time now 2018-Jun-25 19:46 UTC.
Position N 37°31' W 001°07'.

Length 19 m.

Type: Fishing. MMSI: 224020840.

Date/timePositionNaut miles runAvg speedWind from/ knotsBaromVisibWave heightAir tempDewpointWater temp
2018-Jun-25 01:21N 37°31' W 001°07'6 4.9
2018-Jun-25 00:12N 37°31' W 001°00'2 7.5
2018-Jun-24 23:59N 37°30' W 000°59'4 7.4
2018-Jun-24 23:30N 37°29' W 000°55'4 6.1
2018-Jun-24 22:55N 37°31' W 000°58'  
2018-Jun-22 05:11N 37°31' W 001°07'510.5
2018-Jun-22 04:44N 37°30' W 001°01'210.4
2018-Jun-22 04:30N 37°30' W 000°58'3 4.9
2018-Jun-22 03:58N 37°29' W 000°55'0 0.1
2018-Jun-22 03:29N 37°29' W 000°55'1 1.9
2018-Jun-22 03:00N 37°30' W 000°56'2 3.4
2018-Jun-22 02:26N 37°30' W 000°54'0 0.1
2018-Jun-22 02:00N 37°30' W 000°54'0 0.1
2018-Jun-22 01:30N 37°30' W 000°54'1 1.0
2018-Jun-22 01:00N 37°30' W 000°54'0 0.4
2018-Jun-22 00:30N 37°30' W 000°54'2 4.1
2018-Jun-21 23:59N 37°32' W 000°52'0 0.7
2018-Jun-21 23:29N 37°32' W 000°52'0 0.7
2018-Jun-21 22:59N 37°32' W 000°53'0 0.4
2018-Jun-21 22:30N 37°32' W 000°53'0 0.5
2018-Jun-21 21:35N 37°33' W 000°52'0 0.3
2018-Jun-21 21:30N 37°33' W 000°52'0 0.1
2018-Jun-21 21:00N 37°33' W 000°52'11 0.6
2018-Jun-21 03:42N 37°33' W 001°06'1 4.4
2018-Jun-21 03:24N 37°34' W 001°05'5 8.4
2018-Jun-21 02:51N 37°32' W 001°00'3 8.6
2018-Jun-21 02:30N 37°32' W 000°56'2 3.5
2018-Jun-21 01:57N 37°32' W 000°54'0 0.3
2018-Jun-21 01:29N 37°32' W 000°54'0 0.2
2018-Jun-21 01:00N 37°32' W 000°54'0 0.1
2018-Jun-21 00:24N 37°32' W 000°54'1 1.5
2018-Jun-20 23:51N 37°32' W 000°55'10 0.5
2018-Jun-20 04:40N 37°31' W 001°07'510.4
2018-Jun-20 04:10N 37°30' W 001°01'210.4
2018-Jun-20 04:00N 37°30' W 000°59'3 5.8
2018-Jun-20 03:30N 37°30' W 000°55'0 0.3
2018-Jun-20 03:00N 37°30' W 000°55'0 0.2
2018-Jun-20 02:30N 37°30' W 000°55'0 0.6
2018-Jun-20 01:56N 37°30' W 000°55'0 0.3
2018-Jun-20 01:30N 37°30' W 000°55'4 5.2
2018-Jun-20 00:46N 37°31' W 000°60'0 0.1
2018-Jun-19 23:28N 37°31' W 000°59'0 0.4
2018-Jun-19 23:00N 37°31' W 000°60'4 0.2
2018-Jun-19 02:56N 37°32' W 001°05'0 0.4
2018-Jun-19 02:29N 37°32' W 001°04'0 0.4
2018-Jun-19 01:44N 37°32' W 001°05'0 0.1
2018-Jun-19 00:41N 37°32' W 001°05'0 1.9
2018-Jun-19 00:30N 37°32' W 001°05'1 0.1
2018-Jun-18 04:32N 37°32' W 001°06'0 0.2
2018-Jun-18 02:07N 37°32' W 001°06'1 7.9
2018-Jun-18 01:59N 37°33' W 001°06'  

Dump ship's entire track history